createdAt,value
2024-04-13T00:01:10.388Z,68.82
2024-04-13T00:04:08.586Z,67.59
2024-04-13T00:06:43.209Z,68.62
2024-04-13T00:09:18.223Z,70.27
2024-04-13T00:11:50.602Z,69.32
2024-04-13T00:14:23.844Z,68.37
2024-04-13T00:16:58.539Z,68.61
2024-04-13T00:19:32.402Z,68.98
2024-04-13T00:22:09.592Z,70.03
2024-04-13T00:24:45.124Z,69.31
2024-04-13T00:27:21.197Z,70.34
2024-04-13T00:29:56.262Z,70.94
2024-04-13T00:32:28.591Z,70.23
2024-04-13T00:35:01.040Z,70.54
2024-04-13T00:37:35.531Z,70.35
2024-04-13T00:40:10.744Z,69.52
2024-04-13T00:42:46.740Z,70.05
2024-04-13T00:45:19.509Z,70.45
2024-04-13T00:47:53.896Z,70.21
2024-04-13T00:50:30.074Z,70.36
2024-04-13T00:53:05.014Z,69.65
2024-04-13T00:55:40.833Z,68.27
2024-04-13T00:58:15.357Z,68.15
2024-04-13T01:00:48.828Z,69.00
2024-04-13T01:03:23.654Z,69.12
2024-04-13T01:05:56.880Z,69.88
2024-04-13T01:08:30.164Z,68.81
2024-04-13T01:11:05.288Z,68.09
2024-04-13T01:13:40.023Z,69.77
2024-04-13T01:16:16.196Z,70.89
2024-04-13T01:18:48.975Z,71.48
2024-04-13T01:21:22.452Z,70.61
2024-04-13T01:24:00.566Z,69.72
2024-04-13T01:26:39.504Z,70.96
2024-04-13T01:29:15.355Z,71.02
2024-04-13T01:31:48.300Z,70.57
2024-04-13T01:34:26.137Z,71.95
2024-04-13T01:36:59.956Z,72.02
2024-04-13T01:39:33.557Z,71.97
2024-04-13T01:42:07.611Z,72.31
2024-04-13T01:44:39.887Z,72.09
2024-04-13T01:47:13.101Z,72.98
2024-04-13T01:49:45.951Z,72.37
2024-04-13T01:52:18.264Z,72.26
2024-04-13T01:54:50.174Z,71.50
2024-04-13T01:57:25.579Z,70.19
2024-04-13T01:59:58.113Z,69.73
2024-04-13T02:02:30.816Z,71.83
2024-04-13T02:05:04.740Z,70.79
2024-04-13T02:07:40.045Z,70.55
2024-04-13T02:10:16.301Z,72.15
2024-04-13T02:12:48.279Z,71.98
2024-04-13T02:15:20.569Z,73.47
2024-04-13T02:17:57.696Z,72.27
2024-04-13T02:20:30.165Z,71.36
2024-04-13T02:23:06.136Z,71.74
2024-04-13T02:25:38.193Z,71.01
2024-04-13T02:28:10.719Z,71.24
2024-04-13T02:30:44.117Z,72.37
2024-04-13T02:33:18.250Z,72.28
2024-04-13T02:36:01.417Z,73.09
2024-04-13T02:38:35.109Z,72.28
2024-04-13T02:41:13.754Z,73.11
2024-04-13T02:43:46.398Z,73.69
2024-04-13T02:46:18.776Z,72.69
2024-04-13T02:48:51.132Z,73.22
2024-04-13T02:51:26.785Z,72.63
2024-04-13T02:54:00.227Z,72.53
2024-04-13T02:56:35.994Z,71.44
2024-04-13T02:59:08.382Z,72.86
2024-04-13T03:01:41.481Z,72.96
2024-04-13T03:04:19.265Z,72.80
2024-04-13T03:06:55.316Z,72.22
2024-04-13T03:09:30.686Z,72.24
2024-04-13T03:12:03.935Z,72.42
2024-04-13T03:14:36.391Z,72.14
2024-04-13T03:17:08.895Z,71.47
2024-04-13T03:19:41.628Z,70.92
2024-04-13T03:22:19.433Z,71.43
2024-04-13T03:24:52.406Z,71.09
2024-04-13T03:27:25.220Z,71.36
2024-04-13T03:29:58.066Z,71.68
2024-04-13T03:32:30.234Z,72.07
2024-04-13T03:35:10.879Z,71.80
2024-04-13T03:37:45.174Z,71.48
2024-04-13T03:40:17.754Z,70.80
2024-04-13T03:42:49.979Z,71.25
2024-04-13T03:45:24.476Z,70.83
2024-04-13T03:47:57.406Z,71.56
2024-04-13T03:50:29.907Z,73.10
2024-04-13T03:53:02.924Z,72.39
2024-04-13T03:55:35.799Z,73.10
2024-04-13T03:58:08.015Z,73.17
2024-04-13T04:00:40.117Z,72.88
2024-04-13T04:03:15.909Z,73.18
2024-04-13T04:05:52.194Z,73.83
2024-04-13T04:08:24.822Z,73.78
2024-04-13T04:10:58.039Z,72.76
2024-04-13T04:13:30.877Z,73.26
2024-04-13T04:16:04.463Z,72.58
2024-04-13T04:18:39.984Z,73.60
2024-04-13T04:21:13.701Z,72.77
2024-04-13T04:23:46.685Z,72.33
2024-04-13T04:26:18.986Z,72.04
2024-04-13T04:28:53.343Z,72.48
2024-04-13T04:31:28.174Z,72.86
2024-04-13T04:34:02.290Z,74.04
2024-04-13T04:36:40.788Z,73.60
2024-04-13T04:39:19.048Z,73.19
2024-04-13T04:41:53.298Z,75.34
2024-04-13T04:44:29.639Z,75.28
2024-04-13T04:47:02.485Z,73.20
2024-04-13T04:49:36.767Z,73.75
2024-04-13T04:52:16.711Z,75.03
2024-04-13T04:54:48.680Z,74.15
2024-04-13T04:57:21.833Z,74.41
2024-04-13T04:59:58.353Z,73.49
2024-04-13T05:02:30.654Z,73.64
2024-04-13T05:05:10.019Z,73.65
2024-04-13T05:07:44.653Z,73.86
2024-04-13T05:10:18.623Z,72.70
2024-04-13T05:12:50.824Z,72.72
2024-04-13T05:15:26.103Z,72.70
2024-04-13T05:17:58.329Z,72.13
2024-04-13T05:20:30.763Z,72.05
2024-04-13T05:23:06.452Z,72.67
2024-04-13T05:25:38.367Z,72.31
2024-04-13T05:28:10.671Z,71.52
2024-04-13T05:30:58.652Z,71.94
2024-04-13T05:33:32.472Z,72.04
2024-04-13T05:36:07.776Z,71.37
2024-04-13T05:38:42.227Z,71.42
2024-04-13T05:41:14.971Z,71.82
2024-04-13T05:43:47.946Z,71.22
2024-04-13T05:46:21.745Z,70.53
2024-04-13T05:48:55.998Z,70.39
2024-04-13T05:51:28.448Z,69.67
2024-04-13T05:54:00.965Z,67.39
2024-04-13T05:56:36.553Z,64.80
2024-04-13T05:59:09.218Z,64.84
2024-04-13T06:01:43.777Z,61.21
2024-04-13T06:04:16.988Z,59.85
2024-04-13T06:06:52.444Z,59.48
2024-04-13T06:09:24.915Z,56.62
2024-04-13T06:11:58.105Z,58.20
2024-04-13T06:14:32.365Z,56.99
2024-04-13T06:17:04.597Z,56.43
2024-04-13T06:19:38.017Z,54.43
2024-04-13T06:22:13.760Z,54.80
2024-04-13T06:24:46.310Z,52.39
2024-04-13T06:27:18.477Z,51.55
2024-04-13T06:29:55.496Z,49.31
2024-04-13T06:32:28.218Z,50.66
2024-04-13T06:35:00.807Z,48.30
2024-04-13T06:37:35.793Z,48.35
2024-04-13T06:40:17.505Z,46.94
2024-04-13T06:42:49.731Z,46.98
2024-04-13T06:45:22.551Z,44.12
2024-04-13T06:47:54.971Z,44.75
2024-04-13T06:50:28.113Z,43.29
2024-04-13T06:53:00.161Z,43.48
2024-04-13T06:55:36.049Z,41.88
2024-04-13T06:58:08.896Z,39.30
2024-04-13T07:00:42.317Z,39.12
2024-04-13T07:03:17.299Z,38.70
2024-04-13T07:05:55.877Z,40.21
2024-04-13T07:08:29.546Z,40.67
2024-04-13T07:11:04.759Z,41.86
2024-04-13T07:13:39.574Z,39.42
2024-04-13T07:16:13.422Z,39.09
2024-04-13T07:18:48.004Z,37.57
2024-04-13T07:21:21.071Z,38.31
2024-04-13T07:23:54.657Z,37.53
2024-04-13T07:26:27.079Z,36.54
2024-04-13T07:28:58.784Z,35.62
2024-04-13T07:31:31.048Z,35.89
2024-04-13T07:34:05.245Z,35.56
2024-04-13T07:36:38.144Z,35.16
2024-04-13T07:39:14.403Z,34.07
2024-04-13T07:41:47.114Z,34.27
2024-04-13T07:44:19.161Z,34.11
2024-04-13T07:46:52.184Z,34.67
2024-04-13T07:49:28.029Z,34.08
2024-04-13T07:52:03.284Z,35.02
2024-04-13T07:54:37.721Z,34.50
2024-04-13T07:57:10.194Z,33.25
2024-04-13T07:59:44.822Z,32.88
2024-04-13T08:02:17.942Z,32.34
2024-04-13T08:04:54.188Z,32.68
2024-04-13T08:07:26.780Z,32.31
2024-04-13T08:09:58.638Z,33.72
2024-04-13T08:12:33.310Z,33.89
2024-04-13T08:15:09.754Z,35.65
2024-04-13T08:17:42.352Z,36.52
2024-04-13T08:20:17.649Z,36.78
2024-04-13T08:22:50.271Z,36.48
2024-04-13T08:25:25.382Z,36.51
2024-04-13T08:27:58.000Z,36.04
2024-04-13T08:30:30.804Z,35.44
2024-04-13T08:33:05.991Z,34.91
2024-04-13T08:35:38.233Z,35.26
2024-04-13T08:38:14.334Z,35.11
2024-04-13T08:40:52.275Z,34.27
2024-04-13T08:43:26.707Z,33.74
2024-04-13T08:45:59.493Z,33.93
2024-04-13T08:48:32.458Z,33.39
2024-04-13T08:51:08.064Z,34.92
2024-04-13T08:53:45.466Z,34.73
2024-04-13T08:56:22.209Z,33.40
2024-04-13T08:58:56.255Z,33.39
2024-04-13T09:01:28.827Z,35.00
2024-04-13T09:04:02.435Z,35.32
2024-04-13T09:06:38.606Z,34.90
2024-04-13T09:09:13.124Z,34.88
2024-04-13T09:11:46.824Z,33.07
2024-04-13T09:14:18.847Z,32.35
2024-04-13T09:16:52.173Z,32.68
2024-04-13T09:19:25.357Z,33.10
2024-04-13T09:21:58.214Z,34.37
2024-04-13T09:24:40.845Z,33.41
2024-04-13T09:27:22.451Z,32.97
2024-04-13T09:29:55.295Z,32.58
2024-04-13T09:32:29.175Z,32.53
2024-04-13T09:35:15.556Z,31.50
2024-04-13T09:37:48.887Z,30.96
2024-04-13T09:40:23.549Z,30.97
2024-04-13T09:42:58.292Z,31.48
2024-04-13T09:45:34.784Z,31.57
2024-04-13T09:48:11.054Z,32.61
2024-04-13T09:50:46.637Z,33.06
2024-04-13T09:53:19.433Z,33.19
2024-04-13T09:55:52.473Z,33.58
2024-04-13T09:58:27.997Z,33.76
2024-04-13T10:01:03.524Z,32.93
2024-04-13T10:03:36.269Z,33.39
2024-04-13T10:06:16.520Z,33.41
2024-04-13T10:08:51.050Z,33.24
2024-04-13T10:11:28.324Z,32.69
2024-04-13T10:14:01.799Z,32.19
2024-04-13T10:16:36.350Z,31.96
2024-04-13T10:19:14.458Z,32.44
2024-04-13T10:21:52.082Z,33.29
2024-04-13T10:24:29.286Z,32.79
2024-04-13T10:27:10.366Z,32.83
2024-04-13T10:29:49.494Z,33.09
2024-04-13T10:32:26.443Z,33.36
2024-04-13T10:35:08.072Z,34.35
2024-04-13T10:37:40.482Z,33.47
2024-04-13T10:40:24.833Z,33.51
2024-04-13T10:43:07.597Z,34.00
2024-04-13T10:45:40.716Z,34.59
2024-04-13T10:48:17.211Z,34.95
2024-04-13T10:50:52.466Z,34.44
2024-04-13T10:53:27.468Z,34.44
2024-04-13T10:56:04.964Z,35.07
2024-04-13T10:58:42.931Z,35.40
2024-04-13T11:01:22.660Z,35.30
2024-04-13T11:04:08.331Z,35.26
2024-04-13T11:06:43.434Z,35.55
2024-04-13T11:09:16.654Z,35.22
2024-04-13T11:11:49.023Z,35.00
2024-04-13T11:14:23.527Z,35.58
2024-04-13T11:16:56.322Z,36.83
2024-04-13T11:19:28.744Z,37.06
2024-04-13T11:22:05.943Z,37.41
2024-04-13T11:24:38.883Z,37.11
2024-04-13T11:27:11.350Z,36.47
2024-04-13T11:29:45.559Z,36.60
2024-04-13T11:32:19.305Z,35.72
2024-04-13T11:34:55.403Z,36.02
2024-04-13T11:37:27.833Z,38.03
2024-04-13T11:40:00.253Z,37.67
2024-04-13T11:42:42.008Z,38.24
2024-04-13T11:45:18.964Z,39.01
2024-04-13T11:47:52.340Z,38.95
2024-04-13T11:50:25.094Z,38.97
2024-04-13T11:52:58.467Z,40.07
2024-04-13T11:55:39.215Z,40.11
2024-04-13T11:58:22.480Z,39.97
2024-04-13T12:00:56.235Z,39.85
2024-04-13T12:03:28.268Z,40.02
2024-04-13T12:06:02.095Z,40.13
2024-04-13T12:08:34.769Z,40.53
2024-04-13T12:11:08.631Z,40.23
2024-04-13T12:13:44.027Z,39.73
2024-04-13T12:16:18.843Z,40.03
2024-04-13T12:18:51.144Z,39.76
2024-04-13T12:21:27.372Z,39.54
2024-04-13T12:24:01.917Z,40.14
2024-04-13T12:26:37.162Z,40.32
2024-04-13T12:29:09.627Z,40.37
2024-04-13T12:31:46.577Z,41.06
2024-04-13T12:34:25.489Z,40.90
2024-04-13T12:36:58.350Z,40.84
2024-04-13T12:39:31.765Z,41.55
2024-04-13T12:42:09.393Z,42.24
2024-04-13T12:44:44.108Z,41.22
2024-04-13T12:47:18.359Z,40.83
2024-04-13T12:49:50.455Z,40.60
2024-04-13T12:52:27.357Z,40.49
2024-04-13T12:54:59.999Z,40.18
2024-04-13T12:57:33.675Z,40.33
2024-04-13T13:00:07.752Z,39.98
2024-04-13T13:02:40.837Z,39.83
2024-04-13T13:05:14.460Z,39.68
2024-04-13T13:07:46.524Z,39.40
2024-04-13T13:10:18.389Z,39.08
2024-04-13T13:12:50.495Z,39.12
2024-04-13T13:15:25.228Z,39.27
2024-04-13T13:18:00.621Z,38.95
2024-04-13T13:20:34.082Z,38.59
2024-04-13T13:23:08.520Z,38.50
2024-04-13T13:25:42.750Z,38.87
2024-04-13T13:28:15.549Z,39.03
2024-04-13T13:30:48.271Z,38.93
2024-04-13T13:33:21.423Z,38.40
2024-04-13T13:35:57.637Z,38.38
2024-04-13T13:38:30.047Z,37.79
2024-04-13T13:41:06.104Z,37.56
2024-04-13T13:43:38.580Z,37.44
2024-04-13T13:46:11.047Z,37.84
2024-04-13T13:48:45.677Z,37.44
2024-04-13T13:51:17.697Z,37.52
2024-04-13T13:53:49.722Z,36.82
2024-04-13T13:56:22.359Z,36.51
2024-04-13T13:58:55.941Z,36.50
2024-04-13T14:01:28.361Z,36.60
2024-04-13T14:04:02.409Z,36.52
2024-04-13T14:06:36.322Z,36.15
2024-04-13T14:09:08.793Z,36.19
2024-04-13T14:11:42.362Z,36.20
2024-04-13T14:14:18.967Z,35.97
2024-04-13T14:16:52.585Z,36.24
2024-04-13T14:19:25.055Z,36.51
2024-04-13T14:21:59.974Z,36.04
2024-04-13T14:24:36.741Z,35.82
2024-04-13T14:27:09.392Z,35.80
2024-04-13T14:29:42.219Z,35.54
2024-04-13T14:32:16.142Z,35.41
2024-04-13T14:34:48.785Z,35.37
2024-04-13T14:37:21.056Z,35.60
2024-04-13T14:39:55.226Z,35.41
2024-04-13T14:42:30.588Z,35.33
2024-04-13T14:45:07.351Z,35.43
2024-04-13T14:47:42.336Z,35.20
2024-04-13T14:50:15.140Z,35.32
2024-04-13T14:52:48.191Z,35.80
2024-04-13T14:55:24.170Z,36.16
2024-04-13T14:57:57.062Z,35.70
2024-04-13T15:00:29.220Z,35.41
2024-04-13T15:03:04.398Z,35.63
2024-04-13T15:05:37.846Z,35.21
2024-04-13T15:08:12.991Z,35.00
2024-04-13T15:10:50.178Z,35.42
2024-04-13T15:13:23.671Z,35.64
2024-04-13T15:15:57.311Z,35.28
2024-04-13T15:18:29.622Z,35.05
2024-04-13T15:21:02.556Z,35.23
2024-04-13T15:23:35.305Z,35.44
2024-04-13T15:26:10.271Z,35.26
2024-04-13T15:28:45.433Z,35.36
2024-04-13T15:31:18.721Z,35.16
2024-04-13T15:33:51.021Z,34.92
2024-04-13T15:36:25.217Z,35.07
2024-04-13T15:38:59.932Z,35.21
2024-04-13T15:41:32.652Z,35.11
2024-04-13T15:44:05.102Z,35.15
2024-04-13T15:46:38.724Z,35.16
2024-04-13T15:49:11.178Z,35.23
2024-04-13T15:51:45.056Z,35.34
2024-04-13T15:54:18.048Z,35.41
2024-04-13T15:56:50.217Z,35.69
2024-04-13T15:59:28.397Z,35.93
2024-04-13T16:02:10.133Z,36.19
2024-04-13T16:04:47.249Z,36.36
2024-04-13T16:07:19.700Z,36.49
2024-04-13T16:09:55.781Z,36.61
2024-04-13T16:12:28.713Z,36.77
2024-04-13T16:15:01.123Z,36.96
2024-04-13T16:17:37.920Z,37.60
2024-04-13T16:20:17.550Z,37.57
2024-04-13T16:22:53.588Z,37.45
2024-04-13T16:25:27.876Z,37.69
2024-04-13T16:28:02.357Z,37.70
2024-04-13T16:30:35.559Z,38.05
2024-04-13T16:33:13.554Z,38.34
2024-04-13T16:35:47.036Z,39.10
2024-04-13T16:38:19.017Z,38.91
2024-04-13T16:40:54.773Z,38.95
2024-04-13T16:43:31.827Z,39.37
2024-04-13T16:46:04.919Z,39.69
2024-04-13T16:48:38.402Z,39.93
2024-04-13T16:51:10.719Z,40.62
2024-04-13T16:53:45.509Z,40.77
2024-04-13T16:56:17.733Z,40.70
2024-04-13T16:58:50.041Z,40.71
2024-04-13T17:01:26.693Z,41.26
2024-04-13T17:03:59.025Z,41.16
2024-04-13T17:06:31.403Z,41.69
2024-04-13T17:09:05.659Z,42.27
2024-04-13T17:11:38.164Z,42.41
2024-04-13T17:14:10.292Z,42.38
2024-04-13T17:16:46.644Z,42.37
2024-04-13T17:19:18.819Z,42.80
2024-04-13T17:21:51.856Z,43.10
2024-04-13T17:24:26.607Z,43.19
2024-04-13T17:26:57.128Z,43.38
2024-04-13T17:29:30.545Z,43.37
2024-04-13T17:32:06.173Z,43.79
2024-04-13T17:34:38.510Z,44.63
2024-04-13T17:37:10.847Z,45.14
2024-04-13T17:39:52.402Z,45.92
2024-04-13T17:42:25.539Z,46.04
2024-04-13T17:44:57.917Z,46.24
2024-04-13T17:47:29.786Z,46.44
2024-04-13T17:50:06.565Z,46.48
2024-04-13T17:52:39.062Z,46.73
2024-04-13T17:55:11.349Z,47.39
2024-04-13T17:57:48.524Z,47.86
2024-04-13T18:00:22.101Z,47.74
2024-04-13T18:02:56.726Z,47.83
2024-04-13T18:05:27.952Z,47.86
2024-04-13T18:08:00.205Z,47.96
2024-04-13T18:10:34.463Z,48.75
2024-04-13T18:13:07.194Z,48.68
2024-04-13T18:15:39.329Z,48.85
2024-04-13T18:18:12.463Z,48.78
2024-04-13T18:20:44.808Z,50.34
2024-04-13T18:23:23.202Z,49.99
2024-04-13T18:25:56.087Z,49.45
2024-04-13T18:28:31.005Z,49.63
2024-04-13T18:31:05.130Z,49.89
2024-04-13T18:33:42.478Z,50.10
2024-04-13T18:36:15.993Z,51.77
2024-04-13T18:38:52.967Z,50.85
2024-04-13T18:41:27.222Z,50.82
2024-04-13T18:43:59.610Z,51.44
2024-04-13T18:46:34.971Z,51.53
2024-04-13T18:49:07.889Z,51.46
2024-04-13T18:51:42.016Z,52.81
2024-04-13T18:54:14.756Z,52.51
2024-04-13T18:56:47.821Z,52.09
2024-04-13T18:59:20.764Z,53.23
2024-04-13T19:01:55.162Z,52.67
2024-04-13T19:04:27.900Z,52.44
2024-04-13T19:07:00.125Z,53.10
2024-04-13T19:09:35.114Z,53.00
2024-04-13T19:12:08.927Z,54.54
2024-04-13T19:14:40.833Z,53.69
2024-04-13T19:17:16.031Z,53.79
2024-04-13T19:19:47.581Z,54.13
2024-04-13T19:22:20.263Z,54.31
2024-04-13T19:24:58.102Z,54.59
2024-04-13T19:27:33.085Z,54.87
2024-04-13T19:30:08.189Z,55.36
2024-04-13T19:32:40.075Z,55.62
2024-04-13T19:35:13.803Z,56.04
2024-04-13T19:37:46.600Z,56.43
2024-04-13T19:40:19.833Z,56.74
2024-04-13T19:42:53.003Z,57.10
2024-04-13T19:45:28.321Z,57.89
2024-04-13T19:48:00.348Z,56.32
2024-04-13T19:50:35.983Z,55.98
2024-04-13T19:53:08.202Z,56.29
2024-04-13T19:55:40.760Z,56.63
2024-04-13T19:58:14.464Z,56.57
2024-04-13T20:00:49.410Z,57.14
2024-04-13T20:03:25.726Z,57.50
2024-04-13T20:06:03.327Z,56.91
2024-04-13T20:08:37.865Z,57.83
2024-04-13T20:11:14.527Z,57.08
2024-04-13T20:13:48.363Z,56.56
2024-04-13T20:16:40.765Z,57.11
2024-04-13T20:19:15.183Z,57.25
2024-04-13T20:21:48.290Z,57.63
2024-04-13T20:24:23.097Z,58.61
2024-04-13T20:26:58.535Z,58.17
2024-04-13T20:29:30.393Z,58.27
2024-04-13T20:32:06.264Z,59.03
2024-04-13T20:34:38.641Z,58.08
2024-04-13T20:37:11.046Z,57.70
2024-04-13T20:39:48.311Z,58.49
2024-04-13T20:42:20.134Z,59.31
2024-04-13T20:44:55.511Z,57.44
2024-04-13T20:47:28.225Z,57.96
2024-04-13T20:50:00.311Z,58.31
2024-04-13T20:52:52.540Z,58.52
2024-04-13T20:55:32.352Z,57.93
2024-04-13T20:58:06.608Z,57.47
2024-04-13T21:00:40.648Z,57.05
2024-04-13T21:03:14.633Z,58.14
2024-04-13T21:05:49.635Z,58.53
2024-04-13T21:08:22.470Z,59.02
2024-04-13T21:10:56.181Z,58.35
2024-04-13T21:13:28.385Z,58.76
2024-04-13T21:16:00.871Z,58.31
2024-04-13T21:18:35.408Z,58.88
2024-04-13T21:21:08.887Z,58.63
2024-04-13T21:23:40.865Z,59.67
2024-04-13T21:26:16.828Z,60.85
2024-04-13T21:28:48.917Z,59.82
2024-04-13T21:31:20.811Z,60.18
2024-04-13T21:33:55.851Z,59.57
2024-04-13T21:36:32.788Z,60.14
2024-04-13T21:39:08.205Z,58.91
2024-04-13T21:41:40.759Z,59.57
2024-04-13T21:44:16.429Z,59.97
2024-04-13T21:46:51.098Z,59.61
2024-04-13T21:49:28.690Z,59.64
2024-04-13T21:52:05.424Z,60.69
2024-04-13T21:54:44.621Z,59.37
2024-04-13T21:57:18.194Z,59.14
2024-04-13T21:59:50.348Z,59.04
2024-04-13T22:02:25.117Z,59.10
2024-04-13T22:05:00.025Z,60.11
2024-04-13T22:07:34.717Z,59.28
2024-04-13T22:10:08.371Z,59.89
2024-04-13T22:12:44.437Z,59.98
2024-04-13T22:15:17.451Z,59.57
2024-04-13T22:17:49.702Z,59.69
2024-04-13T22:20:23.520Z,60.19
2024-04-13T22:22:56.523Z,59.97
2024-04-13T22:25:30.584Z,60.19
2024-04-13T22:28:04.740Z,60.74
2024-04-13T22:30:39.925Z,59.76
2024-04-13T22:33:13.675Z,60.34
2024-04-13T22:35:53.300Z,61.05
2024-04-13T22:38:27.258Z,60.53
2024-04-13T22:40:59.181Z,60.51
2024-04-13T22:43:34.625Z,59.27
2024-04-13T22:46:07.203Z,59.70
2024-04-13T22:48:40.111Z,59.36
2024-04-13T22:51:13.774Z,59.40
2024-04-13T22:53:48.031Z,59.63
2024-04-13T22:56:19.817Z,60.00
2024-04-13T22:58:53.899Z,59.66
2024-04-13T23:01:26.876Z,60.36
2024-04-13T23:03:58.775Z,59.98
2024-04-13T23:06:30.922Z,60.68
2024-04-13T23:09:06.650Z,60.99
2024-04-13T23:11:40.007Z,61.02
2024-04-13T23:14:15.402Z,60.40
2024-04-13T23:16:50.158Z,61.51
2024-04-13T23:19:23.915Z,60.20
2024-04-13T23:21:57.963Z,60.56
2024-04-13T23:24:30.023Z,61.63
2024-04-13T23:27:05.146Z,61.64
2024-04-13T23:29:37.759Z,60.55
2024-04-13T23:32:10.392Z,60.40
2024-04-13T23:34:47.198Z,60.58
2024-04-13T23:37:18.962Z,61.01
2024-04-13T23:39:53.473Z,60.97
2024-04-13T23:42:26.711Z,61.99
2024-04-13T23:44:59.016Z,62.72
2024-04-13T23:47:32.209Z,62.76
2024-04-13T23:50:05.590Z,62.92
2024-04-13T23:52:37.920Z,62.50
2024-04-13T23:55:10.775Z,62.60
2024-04-13T23:57:45.759Z,61.96
